Paganini — V2CL8 — position and weather

sailwx.info

Track history (hours):
 
Tides and Currents Weather Stations Pressure Air Temp Water Temp Dewpoint Dewpoint Depression Visibility Wind Speed Wind Dir Waves Ship Positions

Paganini

Last reported at 2016-Apr-29 10:21 UTC. Time now 2016-Apr-29 23:32 UTC.
Position N 35°58' W 005°36'.

Length 90 m; draft 5.4 m.

Type: Cargo ship. MMSI: 305040000.

Date/timePositionNaut miles runAvg speedWind from/ knotsBaromVisibWave heightAir tempDewpointWater temp
2016-Apr-29 10:21N 35°58' W 005°36'7 9.1
2016-Apr-29 09:33N 35°59' W 005°27'8 8.4
2016-Apr-29 08:33N 35°55' W 005°18'1 1.1
2016-Apr-29 07:32N 35°54' W 005°19'0 0.0
2016-Apr-29 06:32N 35°54' W 005°19'0 0.0
2016-Apr-29 05:32N 35°54' W 005°19'0 0.5
2016-Apr-29 04:33N 35°54' W 005°19'287 8.9
2016-Apr-27 20:24N 37°17' E 000°22'5310.2
2016-Apr-27 15:10N 37°38' E 001°24'710.9
2016-Apr-27 14:32N 37°41' E 001°32'2210.6
2016-Apr-27 12:25N 37°49' E 001°58'18 9.9
2016-Apr-27 10:33N 37°57' E 002°20'1010.1
2016-Apr-27 09:33N 37°60' E 002°32'1010.1
2016-Apr-27 08:33N 38°01' E 002°45'20 9.9
2016-Apr-27 06:31N 38°01' E 003°10'2510.1
2016-Apr-27 04:04N 38°02' E 003°41'3610.3
2016-Apr-27 00:32N 38°04' E 004°28'368 8.1
2016-Apr-25 03:05N 38°17' E 012°15'2 4.0
2016-Apr-25 02:29N 38°17' E 012°18'7 3.8
2016-Apr-25 00:32N 38°17' E 012°28'4 4.3
2016-Apr-24 23:33N 38°18' E 012°33'6 5.8
2016-Apr-24 22:26N 38°18' E 012°41'6 6.5
2016-Apr-24 21:33N 38°18' E 012°49'6 6.3
2016-Apr-24 20:33N 38°18' E 012°57'7 6.6
2016-Apr-24 19:34N 38°18' E 013°05'6 6.3
2016-Apr-24 18:34N 38°18' E 013°13'6 6.1
2016-Apr-24 17:33N 38°18' E 013°21'6 6.5
2016-Apr-24 16:33N 38°18' E 013°29'7 6.8
2016-Apr-24 15:33N 38°18' E 013°38'7 7.3
2016-Apr-24 14:34N 38°18' E 013°47'7 6.9
2016-Apr-24 13:30N 38°18' E 013°56'37 7.5
2016-Apr-24 08:32N 38°18' E 014°44'8 8.0
2016-Apr-24 07:30N 38°18' E 014°55'8 8.2
2016-Apr-24 06:33N 38°19' E 015°05'9 8.6
2016-Apr-24 05:33N 38°20' E 015°15'9 9.1
2016-Apr-24 04:33N 38°20' E 015°27'1010.0
2016-Apr-24 03:33N 38°19' E 015°40'8 8.4
2016-Apr-24 02:34N 38°11' E 015°37'1010.0
2016-Apr-24 01:33N 38°01' E 015°36'9 9.5
2016-Apr-24 00:33N 37°53' E 015°43'362 7.1
2016-Apr-21 21:32N 43°46' E 013°59'12 9.7
2016-Apr-21 20:19N 43°54' E 013°47'8 9.6
2016-Apr-21 19:28N 43°59' E 013°38'31 9.4
2016-Apr-21 16:11N 44°16' E 013°03'6 9.6
2016-Apr-21 15:33N 44°20' E 012°56'20 9.9
2016-Apr-21 13:32N 44°29' E 012°30'11 1.1
2016-Apr-21 04:06N 44°28' E 012°15'0 0.0
2016-Apr-21 03:33N 44°28' E 012°15'0 0.0
2016-Apr-20 20:33N 44°28' E 012°15'0 0.0
2016-Apr-20 19:18N 44°28' E 012°15'0 0.0
2016-Apr-20 04:33N 44°28' E 012°15'0 0.0
2016-Apr-20 03:33N 44°28' E 012°15'0 0.0
2016-Apr-20 00:33N 44°28' E 012°15'0 0.0
2016-Apr-19 23:33N 44°28' E 012°15'0 0.0
2016-Apr-19 22:33N 44°28' E 012°15'0 0.0
2016-Apr-19 21:33N 44°28' E 012°15'0 0.0
2016-Apr-19 20:33N 44°28' E 012°15'0 0.0
2016-Apr-19 19:33N 44°28' E 012°15'  
Track history (hours):
 
Tides and Currents Weather Stations Pressure Air Temp Water Temp Dewpoint Dewpoint Depression Visibility Wind Speed Wind Dir Waves Ship Positions

Paganini

Last reported at 2016-Apr-29 10:21 UTC. Time now 2016-Apr-29 23:32 UTC.
Position N 35°58' W 005°36'.

Length 90 m; draft 5.4 m.

Type: Cargo ship. MMSI: 305040000.

Date/timePositionNaut miles runAvg speedWind from/ knotsBaromVisibWave heightAir tempDewpointWater temp
2016-Apr-29 10:21N 35°58' W 005°36'7 9.1
2016-Apr-29 09:33N 35°59' W 005°27'8 8.4
2016-Apr-29 08:33N 35°55' W 005°18'1 1.1
2016-Apr-29 07:32N 35°54' W 005°19'0 0.0
2016-Apr-29 06:32N 35°54' W 005°19'0 0.0
2016-Apr-29 05:32N 35°54' W 005°19'0 0.5
2016-Apr-29 04:33N 35°54' W 005°19'287 8.9
2016-Apr-27 20:24N 37°17' E 000°22'5310.2
2016-Apr-27 15:10N 37°38' E 001°24'710.9
2016-Apr-27 14:32N 37°41' E 001°32'2210.6
2016-Apr-27 12:25N 37°49' E 001°58'18 9.9
2016-Apr-27 10:33N 37°57' E 002°20'1010.1
2016-Apr-27 09:33N 37°60' E 002°32'1010.1
2016-Apr-27 08:33N 38°01' E 002°45'20 9.9
2016-Apr-27 06:31N 38°01' E 003°10'2510.1
2016-Apr-27 04:04N 38°02' E 003°41'3610.3
2016-Apr-27 00:32N 38°04' E 004°28'368 8.1
2016-Apr-25 03:05N 38°17' E 012°15'2 4.0
2016-Apr-25 02:29N 38°17' E 012°18'7 3.8
2016-Apr-25 00:32N 38°17' E 012°28'4 4.3
2016-Apr-24 23:33N 38°18' E 012°33'6 5.8
2016-Apr-24 22:26N 38°18' E 012°41'6 6.5
2016-Apr-24 21:33N 38°18' E 012°49'6 6.3
2016-Apr-24 20:33N 38°18' E 012°57'7 6.6
2016-Apr-24 19:34N 38°18' E 013°05'6 6.3
2016-Apr-24 18:34N 38°18' E 013°13'6 6.1
2016-Apr-24 17:33N 38°18' E 013°21'6 6.5
2016-Apr-24 16:33N 38°18' E 013°29'7 6.8
2016-Apr-24 15:33N 38°18' E 013°38'7 7.3
2016-Apr-24 14:34N 38°18' E 013°47'7 6.9
2016-Apr-24 13:30N 38°18' E 013°56'37 7.5
2016-Apr-24 08:32N 38°18' E 014°44'8 8.0
2016-Apr-24 07:30N 38°18' E 014°55'8 8.2
2016-Apr-24 06:33N 38°19' E 015°05'9 8.6
2016-Apr-24 05:33N 38°20' E 015°15'9 9.1
2016-Apr-24 04:33N 38°20' E 015°27'1010.0
2016-Apr-24 03:33N 38°19' E 015°40'8 8.4
2016-Apr-24 02:34N 38°11' E 015°37'1010.0
2016-Apr-24 01:33N 38°01' E 015°36'9 9.5
2016-Apr-24 00:33N 37°53' E 015°43'362 7.1
2016-Apr-21 21:32N 43°46' E 013°59'12 9.7
2016-Apr-21 20:19N 43°54' E 013°47'8 9.6
2016-Apr-21 19:28N 43°59' E 013°38'31 9.4
2016-Apr-21 16:11N 44°16' E 013°03'6 9.6
2016-Apr-21 15:33N 44°20' E 012°56'20 9.9
2016-Apr-21 13:32N 44°29' E 012°30'11 1.1
2016-Apr-21 04:06N 44°28' E 012°15'0 0.0
2016-Apr-21 03:33N 44°28' E 012°15'0 0.0
2016-Apr-20 20:33N 44°28' E 012°15'0 0.0
2016-Apr-20 19:18N 44°28' E 012°15'0 0.0
2016-Apr-20 04:33N 44°28' E 012°15'0 0.0
2016-Apr-20 03:33N 44°28' E 012°15'0 0.0
2016-Apr-20 00:33N 44°28' E 012°15'0 0.0
2016-Apr-19 23:33N 44°28' E 012°15'0 0.0
2016-Apr-19 22:33N 44°28' E 012°15'0 0.0
2016-Apr-19 21:33N 44°28' E 012°15'0 0.0
2016-Apr-19 20:33N 44°28' E 012°15'0 0.0
2016-Apr-19 19:33N 44°28' E 012°15'  

Dump ship's entire track history